createdAt,value
2019-03-17T00:00:49.935Z,973.807
2019-03-17T00:02:50.024Z,973.800
2019-03-17T00:04:50.438Z,973.771
2019-03-17T00:06:49.849Z,973.707
2019-03-17T00:08:49.859Z,973.685
2019-03-17T00:10:52.996Z,973.649
2019-03-17T00:12:50.093Z,973.642
2019-03-17T00:14:50.239Z,973.633
2019-03-17T00:16:50.472Z,973.592
2019-03-17T00:18:50.589Z,973.562
2019-03-17T00:20:49.638Z,973.527
2019-03-17T00:22:49.820Z,973.538
2019-03-17T00:24:49.843Z,973.533
2019-03-17T00:26:50.111Z,973.519
2019-03-17T00:28:50.337Z,973.484
2019-03-17T00:30:50.399Z,973.446
2019-03-17T00:32:50.470Z,973.430
2019-03-17T00:34:51.355Z,973.419
2019-03-17T00:36:50.570Z,973.399
2019-03-17T00:38:49.651Z,973.374
2019-03-17T00:40:49.619Z,973.374
2019-03-17T00:42:49.757Z,973.330
2019-03-17T00:44:49.855Z,973.280
2019-03-17T00:46:50.131Z,973.280
2019-03-17T00:48:50.268Z,973.235
2019-03-17T00:50:50.383Z,973.212
2019-03-17T00:52:50.397Z,973.183
2019-03-17T00:54:50.388Z,973.160
2019-03-17T00:56:49.684Z,973.153
2019-03-17T00:58:49.748Z,973.143
2019-03-17T01:00:49.870Z,973.098
2019-03-17T01:02:49.921Z,973.098
2019-03-17T01:04:56.824Z,973.040
2019-03-17T01:06:50.103Z,973.030
2019-03-17T01:08:50.198Z,972.998
2019-03-17T01:10:50.273Z,972.955
2019-03-17T01:12:50.383Z,972.910
2019-03-17T01:14:50.498Z,972.834
2019-03-17T01:16:49.802Z,972.796
2019-03-17T01:18:49.921Z,972.775
2019-03-17T01:20:49.975Z,972.724
2019-03-17T01:22:50.018Z,972.698
2019-03-17T01:24:50.105Z,972.675
2019-03-17T01:26:50.246Z,972.662
2019-03-17T01:28:50.399Z,972.652
2019-03-17T01:30:50.487Z,972.655
2019-03-17T01:32:49.677Z,972.652
2019-03-17T01:34:50.201Z,972.669
2019-03-17T01:36:50.379Z,972.674
2019-03-17T01:38:50.567Z,972.655
2019-03-17T01:40:49.600Z,972.551
2019-03-17T01:42:49.752Z,972.565
2019-03-17T01:44:49.748Z,972.520
2019-03-17T01:46:50.040Z,972.488
2019-03-17T01:48:50.103Z,972.449
2019-03-17T01:50:50.175Z,972.425
2019-03-17T01:52:50.247Z,972.426
2019-03-17T01:54:50.366Z,972.406
2019-03-17T01:56:50.610Z,972.358
2019-03-17T01:58:49.635Z,972.349
2019-03-17T02:00:49.765Z,972.342
2019-03-17T02:02:49.802Z,972.345
2019-03-17T02:04:50.461Z,972.331
2019-03-17T02:06:50.633Z,972.311
2019-03-17T02:08:49.758Z,972.280
2019-03-17T02:10:49.908Z,972.266
2019-03-17T02:12:50.104Z,972.240
2019-03-17T02:14:50.405Z,972.228
2019-03-17T02:16:49.611Z,972.198
2019-03-17T02:18:49.629Z,972.178
2019-03-17T02:20:49.652Z,972.160
2019-03-17T02:22:49.662Z,972.140
2019-03-17T02:24:49.778Z,972.129
2019-03-17T02:26:49.871Z,972.105
2019-03-17T02:28:49.936Z,972.095
2019-03-17T02:30:50.083Z,972.053
2019-03-17T02:32:50.127Z,972.054
2019-03-17T02:34:50.504Z,972.013
2019-03-17T02:36:49.665Z,971.999
2019-03-17T02:38:49.782Z,971.968
2019-03-17T02:40:49.955Z,971.955
2019-03-17T02:42:50.178Z,971.959
2019-03-17T02:44:50.241Z,971.973
2019-03-17T02:46:50.597Z,971.983
2019-03-17T02:48:49.683Z,971.970
2019-03-17T02:50:49.804Z,971.958
2019-03-17T02:52:49.944Z,971.968
2019-03-17T02:54:49.969Z,971.954
2019-03-17T02:56:50.239Z,971.953
2019-03-17T02:58:50.360Z,971.928
2019-03-17T03:00:50.458Z,971.930
2019-03-17T03:02:50.576Z,971.909
2019-03-17T03:04:50.022Z,971.894
2019-03-17T03:06:50.193Z,971.876
2019-03-17T03:08:50.617Z,971.863
2019-03-17T03:10:49.731Z,971.849
2019-03-17T03:12:49.839Z,971.832
2019-03-17T03:14:50.010Z,971.839
2019-03-17T03:16:50.216Z,971.829
2019-03-17T03:18:50.353Z,971.832
2019-03-17T03:20:50.441Z,971.819
2019-03-17T03:22:50.611Z,971.824
2019-03-17T03:24:49.652Z,971.751
2019-03-17T03:26:49.971Z,971.740
2019-03-17T03:28:50.074Z,971.697
2019-03-17T03:30:50.197Z,971.686
2019-03-17T03:32:50.549Z,971.626
2019-03-17T03:34:50.098Z,971.599
2019-03-17T03:36:50.450Z,971.595
2019-03-17T03:38:50.523Z,971.565
2019-03-17T03:40:49.805Z,971.575
2019-03-17T03:42:49.831Z,971.514
2019-03-17T03:44:49.894Z,971.500
2019-03-17T03:46:49.991Z,971.494
2019-03-17T03:48:50.158Z,971.507
2019-03-17T03:50:50.258Z,971.502
2019-03-17T03:52:50.419Z,971.481
2019-03-17T03:54:50.465Z,971.459
2019-03-17T03:56:49.732Z,971.397
2019-03-17T03:58:49.773Z,971.367
2019-03-17T04:00:49.918Z,971.343
2019-03-17T04:02:49.925Z,971.321
2019-03-17T04:04:50.423Z,971.302
2019-03-17T04:06:49.694Z,971.276
2019-03-17T04:08:49.776Z,971.294
2019-03-17T04:10:49.903Z,971.314
2019-03-17T04:12:49.970Z,971.308
2019-03-17T04:14:50.114Z,971.271
2019-03-17T04:16:50.287Z,971.215
2019-03-17T04:18:50.421Z,971.184
2019-03-17T04:20:50.476Z,971.166
2019-03-17T04:22:49.651Z,971.139
2019-03-17T04:24:49.787Z,971.139
2019-03-17T04:26:49.994Z,971.124
2019-03-17T04:28:50.129Z,971.123
2019-03-17T04:30:50.312Z,971.117
2019-03-17T04:32:50.361Z,970.988
2019-03-17T04:34:49.817Z,970.935
2019-03-17T04:36:50.090Z,970.881
2019-03-17T04:38:50.202Z,970.881
2019-03-17T04:40:50.237Z,970.931
2019-03-17T04:42:50.295Z,970.925
2019-03-17T04:44:50.365Z,970.921
2019-03-17T04:46:50.533Z,970.913
2019-03-17T04:48:51.047Z,970.925
2019-03-17T04:50:50.358Z,970.906
2019-03-17T04:52:50.405Z,970.906
2019-03-17T04:54:50.449Z,970.901
2019-03-17T04:56:49.668Z,970.890
2019-03-17T04:58:49.805Z,970.852
2019-03-17T05:00:49.891Z,970.860
2019-03-17T05:02:49.960Z,970.861
2019-03-17T05:04:50.476Z,970.810
2019-03-17T05:06:53.414Z,970.810
2019-03-17T05:08:50.510Z,970.740
2019-03-17T05:10:49.645Z,970.716
2019-03-17T05:12:49.807Z,970.679
2019-03-17T05:14:49.899Z,970.688
2019-03-17T05:16:50.122Z,970.705
2019-03-17T05:18:50.266Z,970.759
2019-03-17T05:20:50.309Z,970.781
2019-03-17T05:22:50.286Z,970.833
2019-03-17T05:24:50.399Z,970.862
2019-03-17T05:26:50.289Z,970.897
2019-03-17T05:28:50.289Z,970.921
2019-03-17T05:30:50.374Z,970.966
2019-03-17T05:32:50.575Z,970.983
2019-03-17T05:34:50.017Z,971.103
2019-03-17T05:36:50.200Z,971.114
2019-03-17T05:38:50.268Z,971.118
2019-03-17T05:40:50.262Z,971.118
2019-03-17T05:42:50.409Z,971.164
2019-03-17T05:44:50.531Z,971.166
2019-03-17T05:46:49.646Z,971.191
2019-03-17T05:48:49.850Z,971.215
2019-03-17T05:50:49.882Z,971.221
2019-03-17T05:52:49.935Z,971.267
2019-03-17T05:54:49.977Z,971.289
2019-03-17T05:56:50.121Z,971.267
2019-03-17T05:58:50.252Z,971.256
2019-03-17T06:00:50.325Z,971.265
2019-03-17T06:02:50.395Z,971.271
2019-03-17T06:04:49.776Z,971.275
2019-03-17T06:06:49.953Z,971.276
2019-03-17T06:08:50.062Z,971.277
2019-03-17T06:10:50.160Z,971.270
2019-03-17T06:12:50.301Z,971.251
2019-03-17T06:14:50.394Z,971.221
2019-03-17T06:16:50.612Z,971.191
2019-03-17T06:18:49.689Z,971.179
2019-03-17T06:20:49.746Z,971.139
2019-03-17T06:22:49.720Z,971.116
2019-03-17T06:24:49.820Z,971.116
2019-03-17T06:26:50.080Z,971.126
2019-03-17T06:28:50.138Z,971.124
2019-03-17T06:30:50.194Z,971.097
2019-03-17T06:32:50.297Z,971.061
2019-03-17T06:34:49.716Z,971.039
2019-03-17T06:36:49.895Z,971.040
2019-03-17T06:38:49.995Z,971.016
2019-03-17T06:40:49.978Z,971.001
2019-03-17T06:42:50.061Z,970.972
2019-03-17T06:44:50.228Z,970.985
2019-03-17T06:46:50.399Z,970.986
2019-03-17T06:48:50.446Z,970.992
2019-03-17T06:50:50.514Z,970.994
2019-03-17T06:52:53.930Z,970.995
2019-03-17T06:54:50.131Z,970.995
2019-03-17T06:56:50.313Z,970.995
2019-03-17T06:58:50.376Z,971.001
2019-03-17T07:00:50.523Z,971.000
2019-03-17T07:02:50.531Z,971.005
2019-03-17T07:04:49.986Z,971.002
2019-03-17T07:06:50.246Z,971.037
2019-03-17T07:08:50.334Z,971.047
2019-03-17T07:10:50.408Z,971.047
2019-03-17T07:12:50.477Z,970.995
2019-03-17T07:14:50.568Z,970.984
2019-03-17T07:16:49.751Z,970.971
2019-03-17T07:18:49.862Z,970.961
2019-03-17T07:20:49.875Z,970.940
2019-03-17T07:22:49.895Z,970.930
2019-03-17T07:24:50.049Z,970.938
2019-03-17T07:26:50.154Z,970.934
2019-03-17T07:28:50.192Z,970.942
2019-03-17T07:30:50.385Z,970.965
2019-03-17T07:32:50.441Z,970.965
2019-03-17T07:34:49.876Z,970.937
2019-03-17T07:36:49.993Z,970.932
2019-03-17T07:38:50.029Z,970.955
2019-03-17T07:40:50.162Z,970.993
2019-03-17T07:42:50.200Z,971.015
2019-03-17T07:44:50.242Z,971.025
2019-03-17T07:46:50.534Z,971.038
2019-03-17T07:48:50.566Z,971.049
2019-03-17T07:50:50.631Z,971.043
2019-03-17T07:52:49.671Z,971.010
2019-03-17T07:54:49.748Z,971.014
2019-03-17T07:56:49.974Z,971.016
2019-03-17T07:58:50.050Z,971.026
2019-03-17T08:00:50.224Z,971.101
2019-03-17T08:02:50.309Z,971.117
2019-03-17T08:04:49.665Z,971.181
2019-03-17T08:06:49.796Z,971.212
2019-03-17T08:08:49.947Z,971.222
2019-03-17T08:10:50.052Z,971.237
2019-03-17T08:12:50.110Z,971.247
2019-03-17T08:14:50.129Z,971.249
2019-03-17T08:16:50.382Z,971.249
2019-03-17T08:18:50.494Z,971.308
2019-03-17T08:20:50.601Z,971.317
2019-03-17T08:22:50.593Z,971.341
2019-03-17T08:24:49.698Z,971.364
2019-03-17T08:26:50.457Z,971.411
2019-03-17T08:28:50.497Z,971.435
2019-03-17T08:30:53.905Z,971.442
2019-03-17T08:32:50.032Z,971.474
2019-03-17T08:34:49.636Z,971.474
2019-03-17T08:36:49.881Z,971.512
2019-03-17T08:38:49.958Z,971.492
2019-03-17T08:40:50.027Z,971.487
2019-03-17T08:42:50.098Z,971.467
2019-03-17T08:44:50.172Z,971.456
2019-03-17T08:46:50.523Z,971.461
2019-03-17T08:48:50.478Z,971.452
2019-03-17T08:50:50.572Z,971.445
2019-03-17T08:52:50.565Z,971.413
2019-03-17T08:54:49.624Z,971.396
2019-03-17T08:56:49.786Z,971.395
2019-03-17T08:58:49.932Z,971.380
2019-03-17T09:00:49.951Z,971.337
2019-03-17T09:02:50.049Z,971.327
2019-03-17T09:04:50.474Z,971.348
2019-03-17T09:06:49.890Z,971.314
2019-03-17T09:08:49.993Z,971.263
2019-03-17T09:10:50.048Z,971.208
2019-03-17T09:12:50.278Z,971.179
2019-03-17T09:14:50.390Z,971.133
2019-03-17T09:16:50.489Z,971.128
2019-03-17T09:18:49.721Z,971.133
2019-03-17T09:20:49.708Z,971.094
2019-03-17T09:22:49.840Z,971.068
2019-03-17T09:24:49.863Z,971.047
2019-03-17T09:26:50.075Z,971.056
2019-03-17T09:28:50.085Z,971.055
2019-03-17T09:30:50.154Z,971.098
2019-03-17T09:32:50.361Z,971.098
2019-03-17T09:34:49.798Z,971.091
2019-03-17T09:36:50.058Z,971.101
2019-03-17T09:38:50.149Z,971.110
2019-03-17T09:40:50.262Z,971.094
2019-03-17T09:42:50.286Z,971.104
2019-03-17T09:44:50.390Z,971.110
2019-03-17T09:46:50.520Z,971.093
2019-03-17T09:48:50.587Z,971.053
2019-03-17T09:50:49.766Z,971.051
2019-03-17T09:52:49.962Z,971.067
2019-03-17T09:54:50.067Z,971.074
2019-03-17T09:56:50.290Z,971.031
2019-03-17T09:58:50.308Z,971.028
2019-03-17T10:00:50.352Z,971.045
2019-03-17T10:02:50.388Z,971.048
2019-03-17T10:04:49.889Z,971.073
2019-03-17T10:06:50.102Z,971.079
2019-03-17T10:09:00.682Z,971.062
2019-03-17T10:10:49.873Z,971.086
2019-03-17T10:12:50.014Z,971.112
2019-03-17T10:14:50.050Z,971.126
2019-03-17T10:16:50.369Z,971.128
2019-03-17T10:18:50.436Z,971.134
2019-03-17T10:20:50.550Z,971.111
2019-03-17T10:22:50.594Z,971.048
2019-03-17T10:24:49.776Z,970.991
2019-03-17T10:26:50.043Z,970.944
2019-03-17T10:28:50.201Z,970.908
2019-03-17T10:30:50.186Z,970.844
2019-03-17T10:32:50.257Z,970.851
2019-03-17T10:34:49.805Z,970.809
2019-03-17T10:36:50.007Z,970.784
2019-03-17T10:38:50.070Z,970.770
2019-03-17T10:40:50.114Z,970.728
2019-03-17T10:42:50.313Z,970.697
2019-03-17T10:44:50.611Z,970.694
2019-03-17T10:46:50.184Z,970.756
2019-03-17T10:48:50.485Z,970.781
2019-03-17T10:50:50.263Z,970.783
2019-03-17T10:52:50.596Z,970.714
2019-03-17T10:54:49.645Z,970.688
2019-03-17T10:56:49.866Z,970.637
2019-03-17T10:58:49.988Z,970.536
2019-03-17T11:00:50.086Z,970.460
2019-03-17T11:02:50.236Z,970.399
2019-03-17T11:04:49.644Z,970.349
2019-03-17T11:06:49.762Z,970.298
2019-03-17T11:08:49.813Z,970.285
2019-03-17T11:10:49.787Z,970.281
2019-03-17T11:12:50.012Z,970.306
2019-03-17T11:14:50.251Z,970.268
2019-03-17T11:16:50.578Z,970.247
2019-03-17T11:18:49.724Z,970.258
2019-03-17T11:20:49.985Z,970.249
2019-03-17T11:22:50.266Z,970.225
2019-03-17T11:24:50.248Z,970.145
2019-03-17T11:26:50.497Z,970.125
2019-03-17T11:28:50.413Z,970.123
2019-03-17T11:30:49.633Z,970.132
2019-03-17T11:32:49.959Z,970.115
2019-03-17T11:34:50.507Z,970.115
2019-03-17T11:36:50.022Z,970.032
2019-03-17T11:38:50.043Z,970.023
2019-03-17T11:40:50.108Z,969.982
2019-03-17T11:42:50.743Z,969.900
2019-03-17T11:44:49.848Z,969.901
2019-03-17T11:46:50.053Z,969.879
2019-03-17T11:48:50.144Z,969.903
2019-03-17T11:50:50.352Z,969.903
2019-03-17T11:52:50.620Z,969.809
2019-03-17T11:54:49.853Z,969.824
2019-03-17T11:56:50.181Z,969.804
2019-03-17T11:58:50.409Z,969.780
2019-03-17T12:00:50.608Z,969.727
2019-03-17T12:02:49.823Z,969.776
2019-03-17T12:04:50.510Z,969.792
2019-03-17T12:06:49.854Z,969.785
2019-03-17T12:08:50.135Z,969.792
2019-03-17T12:10:50.336Z,969.785
2019-03-17T12:12:50.582Z,969.799
2019-03-17T12:14:49.922Z,969.831
2019-03-17T12:16:50.228Z,969.907
2019-03-17T12:18:50.422Z,969.876
2019-03-17T12:20:50.594Z,969.836
2019-03-17T12:22:49.849Z,969.798
2019-03-17T12:24:50.100Z,969.777
2019-03-17T12:26:50.523Z,969.777
2019-03-17T12:28:49.924Z,969.869
2019-03-17T12:30:50.149Z,969.852
2019-03-17T12:32:50.377Z,969.768
2019-03-17T12:34:49.971Z,969.713
2019-03-17T12:36:50.281Z,969.637
2019-03-17T12:38:50.493Z,969.556
2019-03-17T12:40:49.698Z,969.565
2019-03-17T12:42:50.048Z,969.569
2019-03-17T12:44:50.344Z,969.552
2019-03-17T12:46:50.594Z,969.519
2019-03-17T12:48:49.760Z,969.453
2019-03-17T12:50:49.966Z,969.393
2019-03-17T12:52:50.249Z,969.325
2019-03-17T12:54:50.432Z,969.300
2019-03-17T12:56:49.850Z,969.267
2019-03-17T12:58:50.164Z,969.278
2019-03-17T13:00:50.386Z,969.304
2019-03-17T13:02:50.531Z,969.345
2019-03-17T13:04:50.109Z,969.353
2019-03-17T13:06:50.414Z,969.370
2019-03-17T13:08:49.646Z,969.316
2019-03-17T13:10:49.957Z,969.281
2019-03-17T13:12:50.247Z,969.266
2019-03-17T13:14:50.447Z,969.298
2019-03-17T13:16:49.957Z,969.307
2019-03-17T13:18:50.199Z,969.363
2019-03-17T13:20:50.335Z,969.338
2019-03-17T13:22:49.631Z,969.325
2019-03-17T13:24:49.845Z,969.364
2019-03-17T13:26:50.249Z,969.423
2019-03-17T13:28:50.428Z,969.454
2019-03-17T13:30:50.513Z,969.440
2019-03-17T13:32:50.463Z,969.523
2019-03-17T13:34:49.936Z,969.560
2019-03-17T13:36:50.163Z,969.554
2019-03-17T13:38:50.250Z,969.583
2019-03-17T13:40:50.349Z,969.616
2019-03-17T13:42:50.374Z,969.651
2019-03-17T13:44:50.456Z,969.675
2019-03-17T13:46:49.672Z,969.722
2019-03-17T13:48:49.774Z,969.751
2019-03-17T13:50:49.820Z,969.850
2019-03-17T13:52:49.916Z,969.885
2019-03-17T13:54:50.038Z,969.942
2019-03-17T13:56:50.186Z,969.967
2019-03-17T13:58:50.212Z,970.033
2019-03-17T14:00:50.305Z,970.081
2019-03-17T14:02:50.374Z,970.093
2019-03-17T14:04:50.037Z,970.033
2019-03-17T14:06:50.356Z,969.995
2019-03-17T14:08:50.565Z,970.009
2019-03-17T14:10:49.791Z,970.004
2019-03-17T14:12:49.985Z,970.015
2019-03-17T14:14:50.210Z,970.009
2019-03-17T14:16:49.642Z,970.122
2019-03-17T14:18:49.894Z,970.120
2019-03-17T14:20:50.138Z,970.187
2019-03-17T14:22:50.337Z,970.327
2019-03-17T14:24:50.526Z,970.379
2019-03-17T14:26:50.015Z,970.410
2019-03-17T14:28:50.209Z,970.513
2019-03-17T14:30:50.393Z,970.557
2019-03-17T14:32:49.882Z,970.589
2019-03-17T14:34:50.443Z,970.611
2019-03-17T14:36:49.930Z,970.707
2019-03-17T14:38:50.082Z,970.761
2019-03-17T14:40:57.423Z,970.849
2019-03-17T14:42:50.559Z,970.927
2019-03-17T14:44:50.576Z,970.967
2019-03-17T14:46:49.722Z,971.281
2019-03-17T14:48:49.728Z,971.523
2019-03-17T14:50:49.860Z,971.618
2019-03-17T14:52:49.857Z,971.858
2019-03-17T14:54:50.107Z,972.061
2019-03-17T14:56:50.314Z,972.241
2019-03-17T14:58:50.441Z,972.326
2019-03-17T15:00:50.429Z,972.541
2019-03-17T15:02:50.617Z,972.568
2019-03-17T15:04:49.923Z,972.802
2019-03-17T15:06:50.089Z,972.855
2019-03-17T15:08:50.138Z,972.903
2019-03-17T15:10:50.146Z,972.945
2019-03-17T15:12:50.241Z,973.192
2019-03-17T15:14:50.344Z,973.216
2019-03-17T15:16:50.547Z,973.327
2019-03-17T15:18:49.648Z,973.415
2019-03-17T15:20:49.813Z,973.438
2019-03-17T15:22:49.824Z,973.647
2019-03-17T15:24:49.900Z,973.757
2019-03-17T15:26:50.147Z,973.861
2019-03-17T15:28:50.315Z,973.920
2019-03-17T15:31:11.813Z,973.942
2019-03-17T15:32:50.441Z,973.965
2019-03-17T15:34:49.754Z,974.013
2019-03-17T15:36:50.116Z,973.990
2019-03-17T15:38:50.158Z,973.980
2019-03-17T15:40:50.269Z,973.967
2019-03-17T15:42:50.272Z,973.921
2019-03-17T15:44:50.300Z,973.935
2019-03-17T15:46:50.450Z,973.922
2019-03-17T15:48:50.549Z,973.923
2019-03-17T15:50:49.660Z,973.933
2019-03-17T15:52:49.729Z,973.902
2019-03-17T15:54:49.887Z,973.890
2019-03-17T15:56:50.089Z,973.927
2019-03-17T15:58:50.027Z,973.943
2019-03-17T16:00:50.089Z,973.971
2019-03-17T16:02:50.213Z,973.959
2019-03-17T16:04:49.987Z,973.920
2019-03-17T16:06:50.217Z,973.858
2019-03-17T16:08:50.290Z,973.832
2019-03-17T16:10:50.330Z,973.787
2019-03-17T16:12:50.418Z,973.790
2019-03-17T16:14:50.506Z,973.742
2019-03-17T16:16:49.628Z,973.702
2019-03-17T16:18:49.791Z,973.646
2019-03-17T16:20:49.702Z,973.638
2019-03-17T16:22:49.839Z,973.628
2019-03-17T16:24:49.884Z,973.613
2019-03-17T16:26:50.062Z,973.672
2019-03-17T16:28:50.117Z,973.720
2019-03-17T16:30:50.135Z,973.709
2019-03-17T16:32:50.228Z,973.795
2019-03-17T16:34:49.613Z,973.882
2019-03-17T16:36:49.737Z,973.960
2019-03-17T16:38:49.787Z,974.022
2019-03-17T16:40:49.872Z,974.046
2019-03-17T16:42:49.924Z,974.074
2019-03-17T16:44:50.045Z,974.088
2019-03-17T16:46:50.218Z,974.140
2019-03-17T16:48:50.243Z,974.166
2019-03-17T16:50:50.302Z,974.169
2019-03-17T16:52:50.391Z,974.171
2019-03-17T16:54:50.392Z,974.231
2019-03-17T16:56:49.641Z,974.237
2019-03-17T16:58:49.632Z,974.230
2019-03-17T17:00:49.757Z,974.200
2019-03-17T17:02:49.687Z,974.241
2019-03-17T17:04:50.192Z,974.288
2019-03-17T17:06:50.405Z,974.301
2019-03-17T17:08:50.448Z,974.302
2019-03-17T17:10:51.026Z,974.294
2019-03-17T17:12:50.046Z,974.298
2019-03-17T17:14:50.089Z,974.407
2019-03-17T17:16:50.425Z,974.441
2019-03-17T17:18:50.456Z,974.492
2019-03-17T17:20:50.544Z,974.492
2019-03-17T17:22:49.631Z,974.582
2019-03-17T17:24:49.671Z,974.594
2019-03-17T17:26:49.815Z,974.628
2019-03-17T17:28:49.901Z,974.622
2019-03-17T17:30:49.849Z,974.584
2019-03-17T17:32:49.934Z,974.580
2019-03-17T17:34:50.351Z,974.549
2019-03-17T17:36:49.736Z,974.491
2019-03-17T17:38:49.900Z,974.478
2019-03-17T17:40:49.904Z,974.476
2019-03-17T17:42:50.043Z,974.483
2019-03-17T17:44:50.169Z,974.526
2019-03-17T17:46:50.443Z,974.550
2019-03-17T17:48:50.413Z,974.645
2019-03-17T17:50:50.433Z,974.666
2019-03-17T17:52:50.503Z,974.678
2019-03-17T17:54:50.574Z,974.671
2019-03-17T17:56:49.650Z,974.662
2019-03-17T17:58:49.744Z,974.672
2019-03-17T18:00:49.793Z,974.644
2019-03-17T18:02:49.874Z,974.603
2019-03-17T18:04:50.287Z,974.577
2019-03-17T18:06:50.496Z,974.503
2019-03-17T18:08:50.552Z,974.455
2019-03-17T18:10:49.652Z,974.430
2019-03-17T18:12:49.609Z,974.445
2019-03-17T18:14:49.753Z,974.473
2019-03-17T18:16:49.971Z,974.450
2019-03-17T18:18:50.011Z,974.452
2019-03-17T18:20:50.082Z,974.475
2019-03-17T18:22:50.141Z,974.516
2019-03-17T18:24:50.199Z,974.586
2019-03-17T18:26:50.445Z,974.658
2019-03-17T18:28:50.429Z,974.740
2019-03-17T18:30:50.494Z,974.773
2019-03-17T18:32:50.512Z,974.851
2019-03-17T18:34:50.933Z,974.870
2019-03-17T18:36:50.287Z,974.847
2019-03-17T18:38:50.574Z,974.864
2019-03-17T18:40:50.030Z,974.930
2019-03-17T18:42:50.134Z,975.010
2019-03-17T18:44:50.144Z,975.036
2019-03-17T18:46:50.308Z,975.057
2019-03-17T18:48:50.325Z,975.053
2019-03-17T18:50:50.422Z,975.069
2019-03-17T18:52:50.425Z,975.101
2019-03-17T18:54:50.522Z,975.167
2019-03-17T18:56:49.768Z,975.223
2019-03-17T18:58:49.799Z,975.229
2019-03-17T19:00:49.914Z,975.272
2019-03-17T19:02:50.089Z,975.360
2019-03-17T19:04:50.506Z,975.383
2019-03-17T19:06:49.839Z,975.466
2019-03-17T19:08:49.810Z,975.436
2019-03-17T19:10:50.037Z,975.442
2019-03-17T19:12:50.090Z,975.498
2019-03-17T19:14:50.175Z,975.619
2019-03-17T19:16:50.319Z,975.686
2019-03-17T19:18:50.353Z,975.857
2019-03-17T19:20:50.441Z,975.952
2019-03-17T19:22:50.501Z,975.992
2019-03-17T19:24:50.597Z,976.119
2019-03-17T19:26:49.828Z,976.206
2019-03-17T19:28:49.845Z,976.221
2019-03-17T19:30:49.921Z,976.222
2019-03-17T19:32:49.941Z,976.255
2019-03-17T19:34:50.353Z,976.299
2019-03-17T19:36:50.546Z,976.328
2019-03-17T19:38:50.578Z,976.346
2019-03-17T19:40:50.588Z,976.375
2019-03-17T19:43:00.058Z,976.433
2019-03-17T19:44:49.995Z,976.482
2019-03-17T19:46:50.269Z,976.563
2019-03-17T19:48:50.397Z,976.639
2019-03-17T19:50:50.465Z,976.712
2019-03-17T19:52:50.552Z,976.826
2019-03-17T19:54:50.510Z,976.917
2019-03-17T19:56:49.743Z,976.960
2019-03-17T19:58:49.820Z,977.008
2019-03-17T20:00:49.912Z,977.089
2019-03-17T20:02:50.018Z,977.162
2019-03-17T20:04:50.509Z,977.152
2019-03-17T20:06:49.800Z,977.086
2019-03-17T20:08:49.797Z,977.054
2019-03-17T20:10:49.928Z,977.039
2019-03-17T20:12:49.940Z,977.025
2019-03-17T20:14:50.007Z,977.054
2019-03-17T20:16:50.220Z,977.092
2019-03-17T20:18:50.307Z,977.059
2019-03-17T20:20:50.388Z,977.024
2019-03-17T20:22:50.484Z,977.024
2019-03-17T20:24:50.492Z,977.052
2019-03-17T20:26:49.665Z,977.085
2019-03-17T20:28:49.821Z,977.137
2019-03-17T20:30:49.848Z,977.149
2019-03-17T20:32:49.916Z,977.117
2019-03-17T20:34:50.477Z,977.130
2019-03-17T20:36:49.643Z,977.236
2019-03-17T20:38:49.684Z,977.297
2019-03-17T20:40:49.675Z,977.434
2019-03-17T20:42:49.711Z,977.485
2019-03-17T20:44:49.766Z,977.505
2019-03-17T20:46:49.959Z,977.558
2019-03-17T20:48:50.087Z,977.661
2019-03-17T20:50:50.086Z,977.731
2019-03-17T20:52:50.243Z,977.828
2019-03-17T20:54:50.238Z,977.856
2019-03-17T20:56:50.492Z,977.865
2019-03-17T20:58:49.631Z,977.865
2019-03-17T21:00:50.590Z,977.913
2019-03-17T21:02:49.865Z,977.945
2019-03-17T21:04:50.314Z,978.043
2019-03-17T21:06:49.634Z,978.049
2019-03-17T21:08:49.640Z,977.965
2019-03-17T21:10:50.424Z,977.928
2019-03-17T21:12:50.481Z,977.942
2019-03-17T21:14:50.600Z,977.990
2019-03-17T21:16:49.831Z,978.021
2019-03-17T21:18:49.897Z,977.983
2019-03-17T21:20:49.889Z,977.847
2019-03-17T21:22:49.944Z,977.841
2019-03-17T21:24:49.991Z,977.875
2019-03-17T21:26:50.172Z,977.874
2019-03-17T21:28:50.229Z,977.897
2019-03-17T21:30:50.296Z,977.916
2019-03-17T21:32:50.378Z,977.980
2019-03-17T21:34:49.684Z,978.085
2019-03-17T21:36:50.086Z,978.140
2019-03-17T21:38:50.249Z,978.250
2019-03-17T21:41:07.451Z,978.239
2019-03-17T21:42:50.342Z,978.234
2019-03-17T21:44:50.486Z,978.234
2019-03-17T21:46:50.580Z,978.284
2019-03-17T21:48:49.694Z,978.313
2019-03-17T21:50:49.710Z,978.337
2019-03-17T21:52:49.989Z,978.402
2019-03-17T21:54:50.157Z,978.408
2019-03-17T21:56:50.345Z,978.349
2019-03-17T21:58:50.469Z,978.337
2019-03-17T22:00:50.627Z,978.322
2019-03-17T22:02:49.702Z,978.338
2019-03-17T22:04:49.991Z,978.426
2019-03-17T22:06:50.515Z,978.477
2019-03-17T22:08:49.777Z,978.524
2019-03-17T22:10:50.083Z,978.578
2019-03-17T22:12:50.197Z,978.607
2019-03-17T22:14:50.206Z,978.599
2019-03-17T22:16:50.407Z,978.607
2019-03-17T22:18:50.475Z,978.582
2019-03-17T22:20:50.505Z,978.574
2019-03-17T22:22:50.528Z,978.496
2019-03-17T22:24:49.610Z,978.459
2019-03-17T22:26:49.903Z,978.489
2019-03-17T22:28:49.906Z,978.565
2019-03-17T22:30:49.948Z,978.641
2019-03-17T22:32:50.070Z,978.724
2019-03-17T22:34:50.410Z,978.755
2019-03-17T22:36:50.570Z,978.687
2019-03-17T22:38:49.628Z,978.627
2019-03-17T22:40:49.701Z,978.627
2019-03-17T22:42:49.855Z,978.629
2019-03-17T22:44:50.019Z,978.650
2019-03-17T22:46:50.235Z,978.650
2019-03-17T22:48:50.329Z,978.670
2019-03-17T22:50:50.451Z,978.683
2019-03-17T22:52:50.460Z,978.773
2019-03-17T22:54:50.558Z,978.842
2019-03-17T22:56:50.016Z,978.868
2019-03-17T22:58:50.498Z,978.945
2019-03-17T23:00:50.378Z,978.989
2019-03-17T23:02:49.636Z,979.013
2019-03-17T23:04:50.255Z,979.057
2019-03-17T23:06:50.446Z,979.098
2019-03-17T23:08:50.575Z,979.208
2019-03-17T23:10:49.679Z,979.399
2019-03-17T23:12:49.861Z,979.352
2019-03-17T23:14:49.925Z,979.362
2019-03-17T23:16:50.097Z,979.414
2019-03-17T23:18:50.319Z,979.444
2019-03-17T23:20:50.440Z,979.458
2019-03-17T23:22:50.590Z,979.372
2019-03-17T23:24:50.626Z,979.321
2019-03-17T23:26:49.978Z,979.272
2019-03-17T23:28:50.275Z,979.289
2019-03-17T23:30:50.353Z,979.327
2019-03-17T23:32:50.500Z,979.345
2019-03-17T23:34:50.064Z,979.447
2019-03-17T23:36:50.324Z,979.507
2019-03-17T23:38:50.441Z,979.469
2019-03-17T23:40:50.477Z,979.447
2019-03-17T23:42:50.545Z,979.451
2019-03-17T23:44:50.558Z,979.494
2019-03-17T23:46:49.872Z,979.607
2019-03-17T23:48:49.856Z,979.648
2019-03-17T23:50:49.866Z,979.648
2019-03-17T23:52:49.921Z,979.625
2019-03-17T23:54:50.003Z,979.603
2019-03-17T23:56:50.289Z,979.592
2019-03-17T23:58:50.326Z,979.577
